Flight Track Log - Related Links

Times and Time Zones

All times are in EDT time to prevent confusion due to time zone crossing. See the AAL1326 flight status page for this flight to view local times or setup timezone preferences in your user account.

Time Position Orientation Groundspeed Altitude Reporting Facility
EDT Latitude Longitude Course Direction KTS MPH feet Rate Location/Type
Fri 04:49:14 PM 39.3000 -94.7333 47° Northeast 184 212 2,100  Level Kansas City TRACON
Fri 04:49:34 PM 39.2958 -94.7414 236° Southwest 175 201 2,700 2,429 Climbing Kansas City Center
Fri 04:50:38 PM 39.3547 -94.7072 24° Northeast 249 287 5,500 2,976 Climbing Kansas City Center
Fri 04:51:00 PM 39.4884 -94.4693 41° Northeast  Level FlightAware Approximate
Fri 04:51:39 PM 39.4047 -94.6358 48° Northeast 277 319 8,900  Level Kansas City Center
Fri 04:52:00 PM 39.5671 -94.3781 45° Northeast  Level FlightAware Approximate
Fri 04:52:42 PM 39.4714 -94.5458 46° Northeast 318 366 11,400  Level Kansas City Center
Fri 04:53:00 PM 39.6420 -94.2818 45° Northeast  Level FlightAware Approximate
Fri 04:53:42 PM 39.5378 -94.4553 46° Northeast 360 414 14,600  Level Kansas City Center
Fri 04:54:00 PM 39.7149 -94.1826 47° Northeast  Level FlightAware Approximate
Fri 04:54:46 PM 39.6169 -94.3489 46° Northeast 368 423 17,800  Level Kansas City Center
Fri 04:55:47 PM 39.6861 -94.2514 47° Northeast 382 440 20,200 2,213 Climbing Kansas City Center
Fri 04:56:48 PM 39.7553 -94.1439 50° Northeast 403 464 22,300 2,256 Climbing Kansas City Center
Fri 04:57:52 PM 39.8394 -94.0019 52° Northeast 424 488 24,900 1,984 Climbing Kansas City Center
Fri 04:58:55 PM 39.9131 -93.8789 52° Northeast 433 498 26,500 1,742 Climbing Kansas City Center
Fri 04:59:56 PM 39.9917 -93.7569 50° Northeast 439 505 28,500 1,680 Climbing Kansas City Center
Fri 05:01:00 PM 40.0728 -93.6369 49° Northeast 441 507 30,000 1,392 Climbing Kansas City Center
Fri 05:02:01 PM 40.1569 -93.5169 47° Northeast 447 514 31,400 1,426 Climbing Kansas City Center
Fri 05:03:02 PM 40.2611 -93.3736 46° Northeast 454 522 32,900 768 Climbing Kansas City Center
Fri 05:04:06 PM 40.3525 -93.2553 45° Northeast 460 529 33,000 48 Climbing Kansas City Center
Fri 05:05:06 PM 40.4408 -93.1367 46° Northeast 456 525 33,000  Level Kansas City Center
Fri 05:06:07 PM 40.4836 -92.9667 72° East 470 541 33,000  Level Kansas City Center
Fri 05:07:11 PM 40.4936 -92.7994 85° East 478 550 33,000  Level Kansas City Center
Fri 05:08:12 PM 40.5039 -92.6181 86° East 477 549 33,000  Level Kansas City Center
Fri 05:09:15 PM 40.5128 -92.4447 86° East 476 548 33,000  Level Kansas City Center
Fri 05:10:16 PM 40.5192 -92.2769 87° East 478 550 33,000  Level Kansas City Center
Fri 05:11:20 PM 40.5272 -92.0686 87° East 477 549 33,000  Level Kansas City Center
Fri 05:12:21 PM 40.5336 -91.8942 87° East 478 550 33,000  Level Kansas City Center
Fri 05:13:22 PM 40.5406 -91.7217 87° East 477 549 33,000  Level Kansas City Center
Fri 05:14:15 PM 40.5461 -91.5831 87° East 477 549 33,000  Level Chicago Center
Fri 05:15:17 PM 40.5647 -91.3772 83° East 479 551 33,000  Level Chicago Center
Fri 05:16:19 PM 40.6214 -91.2067 66° East 484 557 33,000  Level Chicago Center
Fri 05:17:21 PM 40.6764 -91.0439 66° East 485 558 33,000  Level Chicago Center
Fri 05:18:23 PM 40.7336 -90.8800 65° Northeast 490 564 33,000  Level Chicago Center
Fri 05:19:25 PM 40.7889 -90.7142 66° East 493 567 33,000  Level Chicago Center
Fri 05:20:27 PM 40.8439 -90.5481 66° East 492 566 33,000 -240 Level Chicago Center
Fri 05:21:30 PM 40.9003 -90.3806 66° East 496 571 32,500 -720 Descending Chicago Center
Fri 05:22:32 PM 40.9564 -90.2119 66° East 492 566 31,500 -1,355 Descending Chicago Center
Fri 05:23:34 PM 41.0097 -90.0497 66° East 484 557 29,700 -2,177 Descending Chicago Center
Fri 05:24:36 PM 41.0731 -89.8544 67° East 474 545 27,000 -2,323 Descending Chicago Center
Fri 05:25:38 PM 41.1253 -89.6983 66° East 461 531 24,900 -2,081 Descending Chicago Center
Fri 05:26:40 PM 41.1756 -89.5486 66° East 443 510 22,700 -2,032 Descending Chicago Center
Fri 05:27:42 PM 41.2331 -89.4089 61° Northeast 430 495 20,700 -1,984 Descending Chicago Center
Fri 05:28:44 PM 41.2878 -89.2753 61° Northeast 416 479 18,600 -2,226 Descending Chicago Center
Fri 05:29:46 PM 41.3453 -89.1272 63° Northeast 396 456 16,100 -2,226 Descending Chicago Center
Fri 05:30:48 PM 41.3956 -89.0019 62° Northeast 387 445 14,000 -1,790 Descending Chicago Center
Fri 05:31:50 PM 41.4433 -88.8806 62° Northeast 374 430 12,400 -1,452 Descending Chicago Center
Fri 05:32:52 PM 41.4886 -88.7631 63° Northeast 361 415 11,000 -629 Descending Chicago Center
Fri 05:33:54 PM 41.5356 -88.6472 62° Northeast 354 407 11,100 48 Climbing Chicago Center
Fri 05:34:56 PM 41.5939 -88.5003 62° Northeast 370 426 11,100 -97 Level Chicago Center
Fri 05:35:58 PM 41.6539 -88.3864 55° Northeast 372 428 10,900 -435 Descending Chicago Center
Fri 05:37:00 PM 41.7194 -88.2758 52° Northeast 375 432 10,200 -435 Descending Chicago Center
Fri 05:38:02 PM 41.7839 -88.1653 52° Northeast 373 429 10,000 -97 Descending Chicago Center
Fri 05:39:04 PM 41.8439 -88.0600 53° Northeast 356 410 10,000 -484 Level Chicago Center
Fri 05:40:06 PM 41.8847 -87.9581 62° Northeast 324 373 9,000 -884 Descending Chicago Center
Fri 05:41:13 PM 41.8833 -87.8000 91° East 312 359 8,100 -756 Descending Chicago TRACON
Fri 05:42:13 PM 41.8833 -87.6833 90° East 310 357 7,400 -1,150 Descending Chicago TRACON
Fri 05:43:13 PM 41.8833 -87.5833 90° East 305 351 5,800 -1,190 Descending Chicago TRACON
Fri 05:44:14 PM 41.8833 -87.4833 90° East 267 307 5,000 -397 Descending Chicago TRACON
Fri 05:45:14 PM 41.8833 -87.4000 90° East 226 260 5,000 48 Level Chicago TRACON
Fri 05:46:20 PM 41.8833 -87.3000 90° East 223 257 5,100 50 Climbing Chicago TRACON
Fri 05:47:14 PM 41.9333 -87.2833 14° North 195 224 5,100  Level Chicago TRACON
Fri 05:48:21 PM 41.9678 -87.3389 310° West 160 184 5,100  Level Chicago Center
Fri 05:49:14 PM 41.9667 -87.3833 268° West 152 175 5,100  Level Chicago TRACON
Fri 05:50:14 PM 41.9667 -87.4500 270° West 154 177 5,100 -48 Level Chicago TRACON
Fri 05:51:20 PM 41.9667 -87.5000 270° West 152 175 5,000 -50 Descending Chicago TRACON
Fri 05:52:15 PM 41.9667 -87.5667 270° West 153 176 5,000 -200 Level Chicago TRACON
Fri 05:53:20 PM 41.9667 -87.6167 270° West 154 177 4,600 -550 Descending Chicago TRACON
Fri 05:54:15 PM 41.9667 -87.6667 270° West 158 182 3,900 -843 Descending Chicago TRACON
Fri 05:55:21 PM 41.9667 -87.7333 270° West 155 178 2,900 -909 Descending Chicago TRACON

Login

Don't have an account? Register now (free) for customized features, flight alerts, and more!